createdAt,value
2022-10-26T03:36:11.921Z,1.50
2022-10-26T03:38:45.935Z,1.50
2022-10-26T03:41:20.671Z,1.50
2022-10-26T03:43:54.735Z,1.47
2022-10-26T03:46:28.406Z,1.50
2022-10-26T03:49:02.659Z,1.53
2022-10-26T03:51:36.240Z,1.47
2022-10-26T03:54:10.397Z,1.90
2022-10-26T03:56:44.272Z,1.87
2022-10-26T03:59:17.498Z,1.60
2022-10-26T04:01:54.046Z,2.00
2022-10-26T04:04:30.987Z,1.53
2022-10-26T04:07:05.141Z,1.90
2022-10-26T04:09:38.583Z,1.90
2022-10-26T04:12:11.652Z,2.50
2022-10-26T04:14:44.473Z,2.00
2022-10-26T04:17:17.473Z,2.10
2022-10-26T04:19:51.466Z,2.17
2022-10-26T04:22:25.218Z,1.53
2022-10-26T04:24:59.489Z,1.60
2022-10-26T04:27:34.111Z,1.70
2022-10-26T04:30:10.148Z,1.77
2022-10-26T04:32:46.965Z,1.90
2022-10-26T04:35:20.592Z,1.70
2022-10-26T04:37:59.101Z,1.97
2022-10-26T04:40:33.789Z,1.50
2022-10-26T04:43:07.040Z,1.67
2022-10-26T04:45:47.575Z,1.93
2022-10-26T04:48:21.115Z,2.20
2022-10-26T04:50:54.945Z,1.53
2022-10-26T04:53:28.294Z,1.27
2022-10-26T04:56:01.672Z,1.70
2022-10-26T04:58:34.523Z,1.67
2022-10-26T05:01:07.375Z,1.20
2022-10-26T05:03:40.776Z,1.80
2022-10-26T05:06:14.689Z,1.53
2022-10-26T05:08:48.987Z,1.83
2022-10-26T05:11:22.112Z,1.60
2022-10-26T05:13:56.704Z,1.33
2022-10-26T05:16:31.087Z,1.50
2022-10-26T05:19:04.961Z,1.80
2022-10-26T05:21:38.290Z,2.17
2022-10-26T05:24:12.553Z,1.50
2022-10-26T05:26:46.320Z,1.43
2022-10-26T05:29:19.529Z,1.43
2022-10-26T05:31:52.351Z,1.77
2022-10-26T05:34:25.255Z,1.40
2022-10-26T05:36:58.929Z,2.27
2022-10-26T05:39:31.750Z,1.80
2022-10-26T05:42:04.447Z,1.80
2022-10-26T05:44:37.244Z,1.77
2022-10-26T05:47:09.925Z,1.77
2022-10-26T05:49:42.787Z,2.00
2022-10-26T05:52:15.769Z,1.40
2022-10-26T05:54:49.425Z,1.83
2022-10-26T05:57:23.191Z,1.47
2022-10-26T05:59:57.038Z,2.20
2022-10-26T06:02:57.931Z,1.80
2022-10-26T06:05:37.285Z,1.90
2022-10-26T06:08:11.799Z,1.98
2022-10-26T06:10:46.435Z,1.70
2022-10-26T06:13:21.473Z,1.97
2022-10-26T06:16:21.159Z,2.10
2022-10-26T06:19:02.060Z,1.90
2022-10-26T06:21:44.291Z,2.75
2022-10-26T06:24:30.575Z,2.43
2022-10-26T06:27:19.674Z,2.37
2022-10-26T06:30:05.007Z,2.17
2022-10-26T06:32:45.688Z,2.43
2022-10-26T06:35:31.436Z,2.17
2022-10-26T06:38:11.124Z,2.17
2022-10-26T06:40:49.779Z,2.53
2022-10-26T06:43:26.489Z,2.60
2022-10-26T06:46:09.483Z,2.37
2022-10-26T06:49:13.404Z,2.07
2022-10-26T06:51:53.029Z,2.70
2022-10-26T06:54:52.426Z,3.17
2022-10-26T06:57:32.808Z,2.43
2022-10-26T07:00:16.245Z,2.60
2022-10-26T07:02:50.512Z,2.53
2022-10-26T07:05:24.315Z,2.30
2022-10-26T07:07:57.607Z,3.00
2022-10-26T07:10:31.505Z,2.50
2022-10-26T07:13:09.293Z,2.73
2022-10-26T07:15:43.733Z,2.57
2022-10-26T07:18:17.249Z,2.65
2022-10-26T07:20:50.941Z,2.30
2022-10-26T07:23:24.974Z,2.83
2022-10-26T07:26:00.959Z,2.43
2022-10-26T07:28:36.700Z,1.97
2022-10-26T07:31:10.283Z,2.10
2022-10-26T07:33:44.882Z,1.30
2022-10-26T07:36:18.259Z,1.60
2022-10-26T07:38:54.625Z,1.30
2022-10-26T07:41:27.586Z,1.40
2022-10-26T07:44:01.449Z,1.33
2022-10-26T07:46:34.863Z,1.40
2022-10-26T07:49:08.168Z,1.23
2022-10-26T07:51:40.976Z,1.60
2022-10-26T07:54:28.711Z,1.37
2022-10-26T07:59:38.200Z,1.50
2022-10-26T08:02:11.053Z,1.20
2022-10-26T08:04:51.312Z,1.27
2022-10-26T08:07:26.118Z,1.40
2022-10-26T08:09:58.981Z,1.10
2022-10-26T08:12:31.633Z,1.40
2022-10-26T08:15:04.999Z,1.30
2022-10-26T08:17:37.692Z,1.10
2022-10-26T08:20:10.984Z,1.13
2022-10-26T08:22:50.371Z,1.10
2022-10-26T08:25:23.375Z,1.23
2022-10-26T08:27:57.240Z,1.00
2022-10-26T08:30:31.358Z,0.97
2022-10-26T08:33:06.123Z,1.00
2022-10-26T08:35:38.938Z,1.20
2022-10-26T08:38:11.669Z,0.90
2022-10-26T08:40:44.542Z,1.07
2022-10-26T08:43:31.876Z,1.30
2022-10-26T08:46:29.186Z,1.50
2022-10-26T08:49:25.686Z,1.48
2022-10-26T08:52:01.644Z,1.27
2022-10-26T08:54:42.302Z,1.20
2022-10-26T08:57:35.466Z,1.33
2022-10-26T09:00:15.126Z,1.00
2022-10-26T09:02:54.180Z,1.10
2022-10-26T09:05:50.727Z,1.17
2022-10-26T09:08:51.033Z,2.27
2022-10-26T09:11:48.104Z,2.30
2022-10-26T09:14:40.666Z,2.20
2022-10-26T09:17:34.556Z,1.60
2022-10-26T09:20:51.701Z,1.30
2022-10-26T09:23:40.118Z,1.50
2022-10-26T09:26:30.413Z,1.00
2022-10-26T09:29:06.387Z,1.20
2022-10-26T09:31:45.041Z,1.10
2022-10-26T09:34:25.265Z,1.00
2022-10-26T09:36:58.287Z,1.55
2022-10-26T09:39:40.007Z,1.13
2022-10-26T09:42:22.203Z,1.35
2022-10-26T09:45:20.561Z,1.50
2022-10-26T09:47:56.672Z,1.00
2022-10-26T09:50:33.933Z,1.08
2022-10-26T09:53:06.709Z,1.02
2022-10-26T09:55:45.133Z,1.20
2022-10-26T09:58:21.933Z,1.10
2022-10-26T10:00:55.224Z,0.80
2022-10-26T10:03:30.985Z,0.77
2022-10-26T10:06:21.871Z,1.00
2022-10-26T10:09:23.084Z,1.13
2022-10-26T10:11:58.765Z,1.02
2022-10-26T10:14:39.002Z,0.90
2022-10-26T10:17:23.109Z,0.80
2022-10-26T10:20:07.677Z,0.88
2022-10-26T10:22:54.163Z,0.90
2022-10-26T10:25:38.812Z,0.80
2022-10-26T10:28:27.205Z,1.13
2022-10-26T10:31:06.295Z,0.77
2022-10-26T10:33:41.888Z,1.00
2022-10-26T10:36:18.174Z,0.70
2022-10-26T10:38:53.120Z,0.73
2022-10-26T10:41:32.723Z,0.90
2022-10-26T10:44:31.744Z,0.80
2022-10-26T10:47:07.340Z,0.73
2022-10-26T10:49:40.608Z,0.70
2022-10-26T10:52:25.239Z,0.80
2022-10-26T10:55:14.495Z,0.70
2022-10-26T10:57:48.119Z,0.80
2022-10-26T11:00:22.567Z,0.60
2022-10-26T11:03:11.672Z,0.80
2022-10-26T11:06:06.254Z,0.75
2022-10-26T11:08:51.174Z,0.70
2022-10-26T11:11:45.644Z,0.90
2022-10-26T11:14:35.964Z,0.70
2022-10-26T11:17:20.785Z,0.80
2022-10-26T11:20:17.018Z,0.80
2022-10-26T11:22:54.842Z,0.70
2022-10-26T11:25:48.713Z,0.55
2022-10-26T11:28:40.132Z,1.00
2022-10-26T11:31:23.146Z,0.80
2022-10-26T11:34:14.761Z,0.80
2022-10-26T11:36:53.774Z,0.77
2022-10-26T11:39:47.597Z,1.10
2022-10-26T11:42:40.739Z,0.60
2022-10-26T11:45:22.071Z,0.88
2022-10-26T11:48:21.348Z,0.60
2022-10-26T11:50:59.444Z,1.20
2022-10-26T11:53:39.774Z,0.75
2022-10-26T11:56:41.921Z,0.75
2022-10-26T11:59:28.075Z,0.65
2022-10-26T12:02:15.741Z,0.80
2022-10-26T12:05:22.460Z,0.60
2022-10-26T12:07:59.040Z,0.70
2022-10-26T12:10:38.744Z,0.70
2022-10-26T12:13:21.801Z,0.90
2022-10-26T12:16:27.765Z,0.80
2022-10-26T12:22:11.849Z,1.73
2022-10-26T12:24:46.720Z,2.13
2022-10-26T12:27:38.461Z,0.63
2022-10-26T12:30:30.743Z,0.65
2022-10-26T12:33:30.238Z,0.68
2022-10-26T12:36:03.211Z,0.52
2022-10-26T12:38:39.139Z,0.60
2022-10-26T12:41:20.970Z,0.65
2022-10-26T12:43:57.859Z,0.60
2022-10-26T12:46:31.065Z,0.57
2022-10-26T12:49:04.579Z,0.47
2022-10-26T12:51:39.888Z,0.40
2022-10-26T12:54:34.901Z,0.60
2022-10-26T12:57:29.110Z,0.60
2022-10-26T13:00:06.954Z,0.50
2022-10-26T13:02:52.799Z,0.40
2022-10-26T13:05:57.295Z,0.50
2022-10-26T13:08:44.019Z,0.60
2022-10-26T13:11:44.093Z,0.73
2022-10-26T13:14:30.879Z,0.70
2022-10-26T13:17:07.358Z,0.45
2022-10-26T13:19:50.006Z,0.70
2022-10-26T13:22:24.884Z,0.40
2022-10-26T13:25:05.183Z,0.52
2022-10-26T13:27:38.277Z,0.77
2022-10-26T13:30:43.671Z,0.68
2022-10-26T13:33:22.197Z,0.50
2022-10-26T13:35:58.688Z,0.57
2022-10-26T13:38:34.447Z,0.50
2022-10-26T13:41:28.256Z,0.50
2022-10-26T13:44:06.407Z,0.77
2022-10-26T13:46:41.798Z,0.73
2022-10-26T13:49:39.060Z,0.50
2022-10-26T13:52:43.738Z,0.73
2022-10-26T13:55:59.642Z,0.60
2022-10-26T13:59:03.556Z,0.88
2022-10-26T14:01:37.821Z,0.50
2022-10-26T14:04:27.590Z,0.57
2022-10-26T14:07:03.290Z,0.63
2022-10-26T14:09:37.323Z,0.60
2022-10-26T14:12:11.581Z,0.85
2022-10-26T14:14:44.404Z,0.45
2022-10-26T14:17:24.883Z,0.50
2022-10-26T14:19:58.319Z,1.33
2022-10-26T14:22:31.798Z,12.80
2022-10-26T14:25:17.786Z,11.23
2022-10-26T14:27:51.857Z,2.60
2022-10-26T14:30:28.936Z,1.05
2022-10-26T14:33:17.336Z,0.80
2022-10-26T14:35:50.864Z,0.75
2022-10-26T14:38:29.996Z,0.57
2022-10-26T14:41:02.863Z,0.70
2022-10-26T14:43:35.856Z,0.50
2022-10-26T14:46:18.052Z,0.63
2022-10-26T14:48:57.298Z,0.75
2022-10-26T14:51:35.196Z,0.80
2022-10-26T14:54:20.786Z,0.60
2022-10-26T14:56:54.126Z,0.80
2022-10-26T14:59:32.100Z,0.75
2022-10-26T15:02:10.835Z,0.95
2022-10-26T15:05:02.167Z,0.45
2022-10-26T15:07:40.981Z,0.60
2022-10-26T15:10:35.854Z,0.82
2022-10-26T15:13:10.329Z,0.50
2022-10-26T15:15:46.999Z,0.68
2022-10-26T15:18:24.497Z,0.60
2022-10-26T15:20:58.157Z,0.73
2022-10-26T15:23:31.739Z,0.70
2022-10-26T15:26:04.750Z,0.98
2022-10-26T15:28:38.766Z,0.63
2022-10-26T15:31:36.996Z,0.60
2022-10-26T15:34:14.657Z,0.70
2022-10-26T15:36:47.570Z,0.45
2022-10-26T15:39:20.670Z,0.90
2022-10-26T15:41:53.710Z,0.80
2022-10-26T15:44:26.642Z,0.90
2022-10-26T15:47:05.043Z,0.50
2022-10-26T15:49:40.810Z,0.50
2022-10-26T15:52:14.171Z,0.70
2022-10-26T15:54:48.285Z,0.60
2022-10-26T15:57:21.655Z,0.70
2022-10-26T15:59:54.675Z,0.55
2022-10-26T16:02:28.086Z,0.60
2022-10-26T16:05:00.977Z,0.80
2022-10-26T16:07:33.779Z,0.80
2022-10-26T16:10:07.201Z,0.60
2022-10-26T16:12:40.834Z,0.90
2022-10-26T16:15:24.642Z,1.60
2022-10-26T16:17:57.734Z,4.30
2022-10-26T16:20:30.830Z,3.75
2022-10-26T16:23:06.956Z,2.75
2022-10-26T16:25:46.705Z,2.15
2022-10-26T16:28:19.506Z,2.00
2022-10-26T16:30:58.771Z,1.13
2022-10-26T16:33:32.253Z,0.93
2022-10-26T16:36:06.959Z,1.10
2022-10-26T16:38:40.282Z,1.15
2022-10-26T16:41:17.364Z,1.10
2022-10-26T16:43:50.363Z,1.02
2022-10-26T16:46:24.051Z,1.10
2022-10-26T16:48:56.927Z,1.52
2022-10-26T16:51:30.002Z,3.53
2022-10-26T16:54:02.925Z,2.10
2022-10-26T16:56:36.231Z,1.27
2022-10-26T16:59:10.228Z,1.40
2022-10-26T17:01:43.152Z,1.17
2022-10-26T17:04:16.044Z,1.05
2022-10-26T17:06:49.122Z,1.30
2022-10-26T17:09:22.167Z,1.43
2022-10-26T17:11:58.279Z,1.90
2022-10-26T17:14:34.590Z,1.98
2022-10-26T17:17:07.498Z,2.30
2022-10-26T17:19:40.444Z,1.67
2022-10-26T17:22:13.182Z,1.43
2022-10-26T17:24:45.994Z,3.00
2022-10-26T17:27:20.238Z,3.88
2022-10-26T17:29:52.945Z,2.42
2022-10-26T17:32:25.628Z,2.00
2022-10-26T17:34:58.834Z,1.45
2022-10-26T17:37:31.595Z,1.50
2022-10-26T17:40:04.848Z,1.37
2022-10-26T17:42:37.754Z,1.30
2022-10-26T17:45:11.538Z,1.23
2022-10-26T17:47:44.485Z,0.90
2022-10-26T17:50:17.464Z,0.90
2022-10-26T17:52:50.362Z,1.00
2022-10-26T17:55:23.147Z,0.90
2022-10-26T17:57:56.361Z,1.17
2022-10-26T18:00:29.121Z,1.03
2022-10-26T18:03:01.853Z,0.93
2022-10-26T18:05:34.655Z,1.10
2022-10-26T18:08:07.499Z,1.10
2022-10-26T18:10:55.363Z,0.90
2022-10-26T18:13:31.194Z,1.00
2022-10-26T18:16:16.350Z,0.90
2022-10-26T18:18:54.841Z,2.00
2022-10-26T18:21:30.901Z,1.30
2022-10-26T18:24:05.019Z,1.00
2022-10-26T18:26:37.798Z,0.87
2022-10-26T18:29:12.795Z,1.00
2022-10-26T18:31:45.992Z,1.00
2022-10-26T18:34:18.862Z,1.10
2022-10-26T18:36:53.056Z,0.80
2022-10-26T18:39:25.884Z,1.30
2022-10-26T18:41:58.711Z,1.17
2022-10-26T18:44:32.466Z,0.80
2022-10-26T18:47:05.192Z,1.00
2022-10-26T18:49:41.576Z,0.87
2022-10-26T18:52:14.251Z,0.80
2022-10-26T18:54:47.028Z,1.20
2022-10-26T18:57:24.431Z,1.07
2022-10-26T18:59:57.492Z,1.40
2022-10-26T19:02:30.226Z,1.37
2022-10-26T19:05:03.173Z,1.17
2022-10-26T19:07:38.984Z,1.30
2022-10-26T19:10:11.747Z,1.50
2022-10-26T19:12:44.470Z,1.53
2022-10-26T19:15:17.259Z,1.73
2022-10-26T19:17:50.516Z,1.13
2022-10-26T19:20:23.251Z,1.13
2022-10-26T19:22:56.160Z,1.20
2022-10-26T19:25:28.874Z,1.07
2022-10-26T19:28:01.627Z,1.20
2022-10-26T19:30:38.633Z,0.93
2022-10-26T19:33:11.298Z,1.10
2022-10-26T19:35:44.176Z,1.00
2022-10-26T19:38:16.910Z,0.80
2022-10-26T19:40:57.405Z,0.97
2022-10-26T19:43:32.376Z,0.90
2022-10-26T19:46:19.138Z,1.10
2022-10-26T19:48:58.266Z,1.00
2022-10-26T19:51:31.973Z,0.93
2022-10-26T19:54:07.003Z,0.93
2022-10-26T19:56:39.881Z,0.80
2022-10-26T19:59:12.822Z,0.90
